createdAt,value
2018-09-28T00:01:28.207Z,11.10
2018-09-28T00:07:32.850Z,11.20
2018-09-28T00:13:37.752Z,11.20
2018-09-28T00:19:42.307Z,11.20
2018-09-28T00:25:46.891Z,11.10
2018-09-28T00:31:51.750Z,11.10
2018-09-28T00:37:56.329Z,11.10
2018-09-28T00:44:00.935Z,10.90
2018-09-28T00:50:06.729Z,10.80
2018-09-28T00:56:11.333Z,10.70
2018-09-28T01:02:15.913Z,10.50
2018-09-28T01:08:20.515Z,10.20
2018-09-28T01:14:25.408Z,10.10
2018-09-28T01:20:29.997Z,9.90
2018-09-28T01:26:34.555Z,9.80
2018-09-28T01:32:39.122Z,9.80
2018-09-28T01:38:43.703Z,9.70
2018-09-28T01:44:48.315Z,9.60
2018-09-28T01:50:53.774Z,9.70
2018-09-28T01:56:58.360Z,9.80
2018-09-28T02:03:03.292Z,9.90
2018-09-28T02:09:08.741Z,9.80
2018-09-28T02:15:13.310Z,9.50
2018-09-28T02:21:17.851Z,9.40
2018-09-28T02:27:22.464Z,9.20
2018-09-28T02:33:27.013Z,9.00
2018-09-28T02:39:31.626Z,8.80
2018-09-28T02:45:36.589Z,8.70
2018-09-28T02:51:41.190Z,8.50
2018-09-28T02:57:45.784Z,8.50
2018-09-28T03:03:50.392Z,8.70
2018-09-28T03:09:54.951Z,8.80
2018-09-28T03:15:59.516Z,8.90
2018-09-28T03:22:04.410Z,8.90
2018-09-28T03:28:08.983Z,8.90
2018-09-28T03:34:13.627Z,8.80
2018-09-28T03:40:18.229Z,8.80
2018-09-28T03:46:22.855Z,8.70
2018-09-28T03:52:27.822Z,8.60
2018-09-28T03:58:32.440Z,8.60
2018-09-28T04:04:37.543Z,8.50
2018-09-28T04:10:42.591Z,8.40
2018-09-28T04:16:47.229Z,8.50
2018-09-28T04:22:52.519Z,8.70
2018-09-28T04:28:57.118Z,8.70
2018-09-28T04:35:02.041Z,8.90
2018-09-28T04:41:06.697Z,9.00
2018-09-28T04:47:11.284Z,9.10
2018-09-28T04:53:16.129Z,9.00
2018-09-28T04:59:20.724Z,9.00
2018-09-28T05:05:25.625Z,9.10
2018-09-28T05:11:30.541Z,9.30
2018-09-28T05:17:35.121Z,9.60
2018-09-28T05:23:39.701Z,9.80
2018-09-28T05:29:44.245Z,9.90
2018-09-28T05:35:49.163Z,9.90
2018-09-28T05:41:54.087Z,10.10
2018-09-28T05:47:58.675Z,10.30
2018-09-28T05:54:03.553Z,10.40
2018-09-28T06:00:13.291Z,10.50
2018-09-28T06:06:17.909Z,10.30
2018-09-28T06:12:22.509Z,10.30
2018-09-28T06:18:27.101Z,10.20
2018-09-28T06:24:31.717Z,10.30
2018-09-28T06:30:36.298Z,10.60
2018-09-28T06:36:41.204Z,10.90
2018-09-28T06:42:45.802Z,11.00
2018-09-28T06:48:50.427Z,10.90
2018-09-28T06:54:55.394Z,10.90
2018-09-28T07:00:59.987Z,10.80
2018-09-28T07:07:04.585Z,10.90
2018-09-28T07:13:09.169Z,11.00
2018-09-28T07:19:14.452Z,11.10
2018-09-28T07:25:19.098Z,11.20
2018-09-28T07:31:23.705Z,11.10
2018-09-28T07:37:28.643Z,11.00
2018-09-28T07:43:33.226Z,10.80
2018-09-28T07:49:37.841Z,10.80
2018-09-28T07:55:42.478Z,10.90
2018-09-28T08:01:47.329Z,11.20
2018-09-28T08:07:52.552Z,11.60
2018-09-28T08:13:57.133Z,11.90
2018-09-28T08:20:01.781Z,12.30
2018-09-28T08:26:06.586Z,12.30
2018-09-28T08:32:11.257Z,12.30
2018-09-28T08:38:15.845Z,12.40
2018-09-28T08:44:20.429Z,12.30
2018-09-28T08:50:25.388Z,12.50
2018-09-28T08:56:29.976Z,13.00
2018-09-28T09:02:34.937Z,13.50
2018-09-28T09:08:39.545Z,13.60
2018-09-28T09:14:44.429Z,13.80
2018-09-28T09:20:49.344Z,13.90
2018-09-28T09:26:53.971Z,14.10
2018-09-28T09:32:58.596Z,14.60
2018-09-28T09:39:04.025Z,15.50
2018-09-28T09:45:09.089Z,17.10
2018-09-28T09:51:13.701Z,17.60
2018-09-28T09:57:18.777Z,16.90
2018-09-28T10:03:28.568Z,15.40
2018-09-28T10:09:33.227Z,14.90
2018-09-28T10:15:37.767Z,14.90
2018-09-28T10:21:42.343Z,14.90
2018-09-28T10:27:47.044Z,14.90
2018-09-28T10:33:51.590Z,14.80
2018-09-28T10:39:56.181Z,15.00
2018-09-28T10:46:00.790Z,15.50
2018-09-28T10:52:05.556Z,16.20
2018-09-28T10:58:10.092Z,17.20
2018-09-28T11:04:15.101Z,17.60
2018-09-28T11:10:19.729Z,18.10
2018-09-28T11:16:24.291Z,18.80
2018-09-28T11:22:28.860Z,18.20
2018-09-28T11:28:33.835Z,17.30
2018-09-28T11:34:38.435Z,16.80
2018-09-28T11:40:43.300Z,16.70
2018-09-28T11:46:47.917Z,16.60
2018-09-28T11:52:52.662Z,16.70
2018-09-28T11:58:57.255Z,16.30
2018-09-28T12:05:02.376Z,16.30
2018-09-28T12:11:07.057Z,16.30
2018-09-28T12:17:11.612Z,16.70
2018-09-28T12:23:16.251Z,16.80
2018-09-28T12:29:20.842Z,16.80
2018-09-28T12:35:25.465Z,17.20
2018-09-28T12:41:30.028Z,17.30
2018-09-28T12:47:34.625Z,18.20
2018-09-28T12:53:39.223Z,18.40
2018-09-28T12:59:43.824Z,17.90
2018-09-28T13:05:48.452Z,17.70
2018-09-28T13:11:53.068Z,17.80
2018-09-28T13:17:57.657Z,17.60
2018-09-28T13:24:02.316Z,18.00
2018-09-28T13:30:07.425Z,18.50
2018-09-28T13:36:11.978Z,17.90
2018-09-28T13:42:16.599Z,17.90
2018-09-28T13:48:21.218Z,18.00
2018-09-28T13:54:25.840Z,17.60
2018-09-28T14:00:30.555Z,16.60
2018-09-28T14:06:35.224Z,16.40
2018-09-28T14:12:39.830Z,16.20
2018-09-28T14:18:44.416Z,16.50
2018-09-28T14:24:49.088Z,16.40
2018-09-28T14:30:53.656Z,16.80
2018-09-28T14:36:58.666Z,18.70
2018-09-28T14:43:03.262Z,18.80
2018-09-28T14:49:08.273Z,19.20
2018-09-28T14:55:12.798Z,18.10
2018-09-28T15:01:17.533Z,18.30
2018-09-28T15:07:22.011Z,18.30
2018-09-28T15:13:26.627Z,19.40
2018-09-28T15:19:31.204Z,20.60
2018-09-28T15:25:36.139Z,19.90
2018-09-28T15:31:40.792Z,18.90
2018-09-28T15:37:45.417Z,17.80
2018-09-28T15:43:50.027Z,16.90
2018-09-28T15:49:54.671Z,16.80
2018-09-28T15:55:59.270Z,15.90
2018-09-28T16:02:03.881Z,15.20
2018-09-28T16:08:08.487Z,14.90
2018-09-28T16:14:13.435Z,15.10
2018-09-28T16:20:18.663Z,15.00
2018-09-28T16:26:23.249Z,14.90
2018-09-28T16:32:27.839Z,14.90
2018-09-28T16:38:32.746Z,15.60
2018-09-28T16:44:37.304Z,15.50
2018-09-28T16:50:41.955Z,14.70
2018-09-28T16:56:46.770Z,14.20
2018-09-28T17:02:51.371Z,13.70
2018-09-28T17:08:55.945Z,13.30
2018-09-28T17:15:00.599Z,12.90
2018-09-28T17:21:05.186Z,12.70
2018-09-28T17:27:09.847Z,12.40
2018-09-28T17:33:14.442Z,12.20
2018-09-28T17:39:19.069Z,12.00
2018-09-28T17:45:23.777Z,12.00
2018-09-28T17:51:28.692Z,11.80
2018-09-28T17:57:33.246Z,11.60
2018-09-28T18:03:37.817Z,11.60
2018-09-28T18:09:42.401Z,11.50
2018-09-28T18:15:46.965Z,11.40
2018-09-28T18:21:51.581Z,11.10
2018-09-28T18:27:56.215Z,11.00
2018-09-28T18:34:00.805Z,10.90
2018-09-28T18:40:05.882Z,10.70
2018-09-28T18:46:10.501Z,10.60
2018-09-28T18:52:15.123Z,10.50
2018-09-28T18:58:20.052Z,10.30
2018-09-28T19:04:24.655Z,10.20
2018-09-28T19:10:29.243Z,10.20
2018-09-28T19:16:33.889Z,10.10
2018-09-28T19:22:38.477Z,10.00
2018-09-28T19:28:43.047Z,9.90
2018-09-28T19:34:47.694Z,9.70
2018-09-28T19:40:52.340Z,9.70
2018-09-28T19:46:56.967Z,9.70
2018-09-28T19:53:02.007Z,9.60
2018-09-28T19:59:06.941Z,9.30
2018-09-28T20:05:11.567Z,9.20
2018-09-28T20:11:16.162Z,9.10
2018-09-28T20:17:20.749Z,9.00
2018-09-28T20:23:25.741Z,8.90
2018-09-28T20:29:30.612Z,8.90
2018-09-28T20:35:35.201Z,8.90
2018-09-28T20:41:39.827Z,8.70
2018-09-28T20:47:44.769Z,8.70
2018-09-28T20:53:49.333Z,8.50
2018-09-28T20:59:53.897Z,8.40
2018-09-28T21:05:58.898Z,8.20
2018-09-28T21:12:03.461Z,8.10
2018-09-28T21:18:08.033Z,8.10
2018-09-28T21:24:12.677Z,8.00
2018-09-28T21:30:17.285Z,8.00
2018-09-28T21:36:21.885Z,7.90
2018-09-28T21:42:26.539Z,8.00
2018-09-28T21:48:31.157Z,8.10
2018-09-28T21:54:36.121Z,8.00
2018-09-28T22:00:40.769Z,8.00
2018-09-28T22:06:45.366Z,7.80
2018-09-28T22:12:50.222Z,7.90
2018-09-28T22:18:54.849Z,7.90
2018-09-28T22:24:59.413Z,7.90
2018-09-28T22:31:04.037Z,7.60
2018-09-28T22:37:08.629Z,7.40
2018-09-28T22:43:13.169Z,7.30
2018-09-28T22:49:18.116Z,7.20
2018-09-28T22:55:23.034Z,7.00
2018-09-28T23:01:27.590Z,6.90
2018-09-28T23:07:32.174Z,6.80
2018-09-28T23:13:36.762Z,6.70
2018-09-28T23:19:41.366Z,6.50
2018-09-28T23:25:45.947Z,6.50
2018-09-28T23:31:50.533Z,6.40
2018-09-28T23:37:55.847Z,6.30
2018-09-28T23:44:00.438Z,6.30
2018-09-28T23:50:05.182Z,6.30
2018-09-28T23:56:09.785Z,6.20
